Time;durP1;ratioP1;P1;durP2;ratioP2;P2;SDS_P1;SDS_P2;PMS_P1;PMS_P2;Temp;Humidity;BMP_temperature;BMP_pressure;BME280_temperature;BME280_humidity;BME280_pressure;Samples;Min_cycle;Max_cycle;Signal;HPM_P1;HPM_P2
2023/02/10 00:00:27;;;;;;;15.85;9.60;;;;;;;-2.85;67.77;96650.88;5051303;28;20549;-78
2023/02/10 00:02:55;;;;;;;23.35;9.68;;;;;;;-2.85;67.71;96653.44;5051988;28;20207;-78
2023/02/10 00:05:22;;;;;;;15.05;8.55;;;;;;;-2.82;68.46;96656.00;5000076;28;20203;-78
2023/02/10 00:07:49;;;;;;;24.45;12.80;;;;;;;-2.82;67.78;96651.72;5000087;28;20231;-78
2023/02/10 00:10:16;;;;;;;31.48;12.55;;;;;;;-2.84;67.66;96653.44;5051283;28;20264;-78
2023/02/10 00:12:42;;;;;;;21.33;10.38;;;;;;;-2.86;67.54;96656.88;5051029;28;20619;-78
2023/02/10 00:15:09;;;;;;;24.50;10.95;;;;;;;-2.94;67.24;96640.63;5051539;28;20612;-78
2023/02/10 00:17:36;;;;;;;15.93;9.48;;;;;;;-2.84;67.66;96656.00;5051500;28;20206;-78
2023/02/10 00:20:06;;;;;;;15.95;9.13;;;;;;;-2.84;67.26;96650.03;5051242;28;20633;-78
2023/02/10 00:22:33;;;;;;;20.13;9.30;;;;;;;-2.81;66.97;96650.00;5051490;28;20857;-78
2023/02/10 00:25:00;;;;;;;17.70;10.07;;;;;;;-2.79;67.11;96648.28;5051352;28;20256;-78
2023/02/10 00:27:27;;;;;;;17.83;9.27;;;;;;;-2.77;67.17;96656.81;5051388;28;20248;-78
2023/02/10 00:29:53;;;;;;;25.10;11.95;;;;;;;-2.80;67.61;96649.13;5051234;28;20202;-77
2023/02/10 00:32:22;;;;;;;23.15;12.00;;;;;;;-2.81;67.22;96650.84;5051418;28;20256;-78
2023/02/10 00:34:49;;;;;;;23.13;12.40;;;;;;;-2.84;67.37;96639.75;5001140;28;20203;-77
2023/02/10 00:37:17;;;;;;;23.38;13.48;;;;;;;-2.78;67.04;96638.84;5053217;28;20198;-78
2023/02/10 00:39:45;;;;;;;30.20;12.93;;;;;;;-2.80;67.16;96631.16;5055253;28;20588;-78
2023/02/10 00:42:12;;;;;;;22.77;11.68;;;;;;;-2.80;67.16;96644.00;5055323;28;20206;-78
2023/02/10 00:44:39;;;;;;;23.80;11.70;;;;;;;-2.77;67.57;96632.84;5055224;28;20714;-78
2023/02/10 00:47:05;;;;;;;17.92;9.65;;;;;;;-2.81;67.01;96626.88;5055401;28;20743;-78
2023/02/10 00:49:32;;;;;;;19.42;8.90;;;;;;;-2.87;66.47;96627.78;5055336;28;20555;-78
2023/02/10 00:51:59;;;;;;;12.85;8.65;;;;;;;-2.89;65.95;96615.78;5055135;28;20708;-78
2023/02/10 00:54:27;;;;;;;17.58;9.82;;;;;;;-2.90;66.18;96624.34;5054798;28;20253;-78
2023/02/10 00:56:54;;;;;;;20.10;8.65;;;;;;;-2.95;66.03;96618.38;5003394;28;20218;-79
2023/02/10 00:59:21;;;;;;;14.57;7.63;;;;;;;-2.98;65.27;96618.38;5055011;28;20665;-78
2023/02/10 01:01:48;;;;;;;14.80;8.65;;;;;;;-3.01;65.11;96620.97;5055245;28;20614;-78
2023/02/10 01:04:14;;;;;;;15.32;8.55;;;;;;;-3.05;65.51;96615.00;5054803;28;20658;-78
2023/02/10 01:06:41;;;;;;;20.33;9.43;;;;;;;-3.06;66.07;96613.31;5054576;28;20227;-78
2023/02/10 01:09:08;;;;;;;17.35;9.30;;;;;;;-3.08;66.48;96622.72;5054521;28;20226;-78
2023/02/10 01:11:36;;;;;;;13.77;9.00;;;;;;;-3.12;66.20;96615.91;5002995;28;20195;-77
2023/02/10 01:14:03;;;;;;;21.27;8.55;;;;;;;-3.16;66.52;96609.06;5054712;28;20747;-78
2023/02/10 01:16:30;;;;;;;18.33;10.27;;;;;;;-3.14;66.43;96607.34;5054477;28;20744;-79
2023/02/10 01:18:59;;;;;;;16.70;9.63;;;;;;;-3.10;66.30;96615.88;5054828;28;20261;-78
2023/02/10 01:21:26;;;;;;;29.80;9.20;;;;;;;-3.14;66.35;96610.78;5054338;28;20646;-78
2023/02/10 01:23:56;;;;;;;14.57;7.88;;;;;;;-3.19;66.48;96609.91;5054450;28;20203;-78
2023/02/10 01:26:23;;;;;;;20.20;10.05;;;;;;;-3.25;66.86;96596.25;5054556;28;20239;-78
2023/02/10 01:28:52;;;;;;;14.90;8.80;;;;;;;-3.40;66.85;96591.19;5054746;28;20735;-78
2023/02/10 01:31:20;;;;;;;20.55;8.35;;;;;;;-3.36;67.01;96595.44;5054624;28;20195;-77
2023/02/10 01:33:48;;;;;;;16.02;8.63;;;;;;;-3.42;66.91;96591.19;5054407;28;20244;-78
2023/02/10 01:36:16;;;;;;;12.65;8.30;;;;;;;-3.50;66.72;96596.31;5054314;28;20207;-79
2023/02/10 01:38:43;;;;;;;13.38;8.38;;;;;;;-3.53;66.80;96595.47;5054305;28;20211;-78
2023/02/10 01:41:10;;;;;;;11.05;8.80;;;;;;;-3.52;66.90;96597.19;5054004;28;20256;-78
2023/02/10 01:43:57;;;;;;;13.30;8.65;;;;;;;-3.54;66.08;96598.91;5054167;28;20209;-78
2023/02/10 01:46:24;;;;;;;13.32;7.72;;;;;;;-3.54;66.17;96589.50;5054240;28;20234;-77
2023/02/10 01:48:52;;;;;;;16.15;7.68;;;;;;;-3.63;66.47;96583.56;5053628;28;20203;-77
2023/02/10 01:51:23;;;;;;;12.68;6.88;;;;;;;-3.73;66.94;96585.28;5054127;28;20260;-78
2023/02/10 01:53:50;;;;;;;16.05;8.10;;;;;;;-3.80;66.48;96586.13;5054116;28;20256;-78
2023/02/10 01:56:17;;;;;;;18.23;8.38;;;;;;;-3.90;67.13;96572.50;5054244;28;20252;-78
2023/02/10 01:58:44;;;;;;;14.38;7.90;;;;;;;-3.88;67.18;96578.47;5053984;28;20210;-78
2023/02/10 02:01:12;;;;;;;9.60;7.95;;;;;;;-3.85;67.19;96575.91;5054090;28;20210;-78
2023/02/10 02:03:41;;;;;;;22.02;8.45;;;;;;;-3.82;66.68;96573.31;5054102;28;20715;-78
2023/02/10 02:06:08;;;;;;;15.93;8.07;;;;;;;-3.93;66.56;96566.53;5054143;28;20207;-78
2023/02/10 02:08:35;;;;;;;14.13;7.63;;;;;;;-3.91;67.04;96570.78;5053717;28;20199;-78
2023/02/10 02:11:11;;;;;;;13.68;8.90;;;;;;;-3.98;66.72;96565.69;5054198;28;20708;-78
2023/02/10 02:13:52;;;;;;;9.63;6.90;;;;;;;-4.04;67.65;96561.41;5053765;28;20217;-77
2023/02/10 02:16:32;;;;;;;11.07;6.97;;;;;;;-4.03;67.93;96550.31;5020392;28;20199;-78
2023/02/10 02:19:04;;;;;;;13.55;8.48;;;;;;;-4.11;68.30;96559.69;5054012;28;20198;-77
2023/02/10 02:21:48;;;;;;;19.50;8.73;;;;;;;-4.19;69.43;96551.16;5053628;28;20206;-78
2023/02/10 02:24:41;;;;;;;14.25;8.80;;;;;;;-4.24;70.06;96551.19;5053770;28;20264;-78
2023/02/10 02:27:45;;;;;;;13.77;8.55;;;;;;;-4.30;70.81;96551.19;4952967;29;20317;-78
2023/02/10 02:30:40;;;;;;;14.20;8.13;;;;;;;-4.28;70.75;96553.75;4953102;29;20256;-77
2023/02/10 02:33:13;;;;;;;15.35;10.13;;;;;;;-4.27;70.97;96537.53;4896127;29;20208;-78
2023/02/10 02:35:44;;;;;;;16.40;9.70;;;;;;;-4.18;70.72;96546.03;4895934;29;20264;-78
2023/02/10 02:38:12;;;;;;;16.73;9.20;;;;;;;-4.27;70.75;96543.50;4895857;29;20208;-78
2023/02/10 02:40:39;;;;;;;20.67;10.63;;;;;;;-4.31;71.27;96536.69;4895781;29;20300;-78
2023/02/10 02:43:06;;;;;;;12.43;8.77;;;;;;;-4.28;71.11;96534.09;4895959;29;20212;-78
2023/02/10 02:45:42;;;;;;;25.83;11.60;;;;;;;-4.45;71.53;96549.47;4895935;29;20301;-78
2023/02/10 02:48:27;;;;;;;22.23;13.75;;;;;;;-4.51;72.30;96546.91;4895976;29;20231;-78
2023/02/10 02:51:02;;;;;;;25.02;15.60;;;;;;;-4.42;72.34;96543.50;4879850;29;20204;-78
2023/02/10 02:53:38;;;;;;;35.60;17.35;;;;;;;-4.30;72.33;96546.06;4880506;29;20214;-78
2023/02/10 02:56:16;;;;;;;31.70;17.73;;;;;;;-4.24;72.47;96543.50;4895799;29;20737;-78
2023/02/10 02:58:53;;;;;;;32.67;19.00;;;;;;;-4.17;72.40;96546.91;4895649;29;20778;-78
2023/02/10 03:01:24;;;;;;;28.70;15.13;;;;;;;-4.27;72.51;96542.66;4895888;29;20272;-78
2023/02/10 03:03:55;;;;;;;31.33;16.73;;;;;;;-4.46;73.22;96541.78;4909362;29;20264;-77
2023/02/10 03:06:21;;;;;;;27.42;16.10;;;;;;;-4.43;73.58;96547.75;4952274;29;20221;-78
2023/02/10 03:08:49;;;;;;;25.45;13.40;;;;;;;-4.35;73.84;96550.31;4952427;29;20636;-78
2023/02/10 03:11:16;;;;;;;34.83;16.70;;;;;;;-4.29;73.79;96540.09;5047804;28;20256;-78
2023/02/10 03:13:42;;;;;;;22.58;14.77;;;;;;;-4.22;73.66;96540.94;5052705;28;20602;-78
2023/02/10 03:16:09;;;;;;;24.35;14.52;;;;;;;-4.20;73.07;96545.19;5052601;28;20264;-77
2023/02/10 03:18:36;;;;;;;23.27;13.70;;;;;;;-4.20;72.99;96547.75;5052214;28;20547;-78
2023/02/10 03:21:05;;;;;;;22.67;11.45;;;;;;;-4.24;72.92;96547.75;5052727;28;20249;-78
2023/02/10 03:23:32;;;;;;;17.35;9.95;;;;;;;-4.27;72.49;96547.78;5052439;28;20202;-78
2023/02/10 03:25:59;;;;;;;14.70;9.50;;;;;;;-4.28;72.82;96548.63;5052380;28;20234;-78
2023/02/10 03:28:26;;;;;;;16.25;10.40;;;;;;;-4.33;72.67;96548.63;5052464;28;20313;-78
2023/02/10 03:30:53;;;;;;;16.65;9.85;;;;;;;-4.34;73.14;96540.91;5052086;28;20608;-77
2023/02/10 03:33:20;;;;;;;24.23;11.73;;;;;;;-4.36;72.92;96544.34;5052439;28;20321;-78
2023/02/10 03:35:47;;;;;;;16.65;10.05;;;;;;;-4.34;72.67;96551.16;5052059;28;20547;-78
2023/02/10 03:38:16;;;;;;;19.80;10.30;;;;;;;-4.32;73.60;96544.38;5001073;28;20207;-78
2023/02/10 03:40:43;;;;;;;15.20;9.80;;;;;;;-4.31;73.61;96543.50;5000878;28;20202;-77
2023/02/10 03:43:10;;;;;;;14.48;8.43;;;;;;;-4.33;73.44;96537.53;5052441;28;20268;-78
2023/02/10 03:45:39;;;;;;;13.68;9.60;;;;;;;-4.31;73.49;96533.25;5052053;28;20661;-78
2023/02/10 03:48:06;;;;;;;18.55;10.23;;;;;;;-4.31;73.07;96536.69;5052050;28;20775;-78
2023/02/10 03:50:33;;;;;;;15.52;9.70;;;;;;;-4.26;72.95;96531.53;5052219;28;20645;-78
2023/02/10 03:53:00;;;;;;;14.90;9.13;;;;;;;-4.29;73.54;96536.66;5052089;28;20206;-78
2023/02/10 03:55:28;;;;;;;17.75;10.82;;;;;;;-4.33;73.58;96529.84;5051943;28;20199;-77
2023/02/10 03:58:00;;;;;;;18.80;10.63;;;;;;;-4.39;74.13;96528.97;5051504;28;20722;-78
2023/02/10 04:00:27;;;;;;;14.90;9.23;;;;;;;-4.40;74.11;96527.25;5052355;28;20214;-78
2023/02/10 04:02:54;;;;;;;14.27;9.70;;;;;;;-4.39;74.14;96528.13;5052554;28;20641;-78
2023/02/10 04:05:21;;;;;;;16.88;10.73;;;;;;;-4.38;73.96;96525.56;5052715;28;20194;-78
2023/02/10 04:07:48;;;;;;;25.45;9.68;;;;;;;-4.37;73.14;96527.25;5052469;28;20222;-77
2023/02/10 04:10:14;;;;;;;11.95;7.07;;;;;;;-4.38;73.61;96524.69;5052476;28;20257;-77
2023/02/10 04:12:42;;;;;;;14.13;9.18;;;;;;;-4.46;74.75;96519.59;5051886;28;20202;-78
2023/02/10 04:15:10;;;;;;;17.85;9.45;;;;;;;-4.51;73.98;96518.75;5052310;28;20646;-77
2023/02/10 04:17:36;;;;;;;18.33;11.23;;;;;;;-4.54;73.54;96523.88;5052639;28;20207;-78
2023/02/10 04:20:03;;;;;;;17.10;10.43;;;;;;;-4.67;74.03;96523.00;5052520;28;20264;-78
2023/02/10 04:22:30;;;;;;;22.02;10.13;;;;;;;-4.69;74.26;96523.84;5052503;28;20248;-78
2023/02/10 04:24:57;;;;;;;18.58;11.43;;;;;;;-4.66;74.42;96521.28;5016938;28;20257;-78
2023/02/10 04:27:23;;;;;;;23.25;12.27;;;;;;;-4.67;74.29;96517.88;5052362;28;20284;-79
2023/02/10 04:29:51;;;;;;;19.27;11.18;;;;;;;-4.74;74.09;96517.88;5052475;28;20260;-78
2023/02/10 04:32:18;;;;;;;21.90;12.30;;;;;;;-4.74;74.29;96523.00;5052367;28;20244;-78
2023/02/10 04:34:45;;;;;;;27.98;13.00;;;;;;;-4.74;73.90;96516.16;5052426;28;20666;-78
2023/02/10 04:37:12;;;;;;;22.35;9.93;;;;;;;-4.73;73.86;96517.03;5052482;28;20240;-78
2023/02/10 04:39:38;;;;;;;30.30;12.65;;;;;;;-4.69;74.11;96523.84;5052369;28;20264;-78
2023/02/10 04:42:05;;;;;;;18.30;9.25;;;;;;;-4.73;73.81;96523.00;5052142;28;20194;-79
2023/02/10 04:44:32;;;;;;;13.27;9.05;;;;;;;-4.71;74.09;96528.97;5052174;28;20214;-78
2023/02/10 04:47:00;;;;;;;26.35;10.48;;;;;;;-4.67;74.00;96527.25;5052597;28;20214;-78
2023/02/10 04:49:27;;;;;;;24.50;10.23;;;;;;;-4.66;73.78;96534.09;5048810;28;20210;-77
2023/02/10 04:51:54;;;;;;;15.32;9.15;;;;;;;-4.63;73.27;96534.09;4981660;28;20590;-78
2023/02/10 04:54:21;;;;;;;24.33;12.13;;;;;;;-4.63;72.86;96539.22;5043208;28;20264;-78
2023/02/10 04:56:48;;;;;;;22.13;10.13;;;;;;;-4.59;72.49;96530.69;5049105;28;20206;-78
2023/02/10 04:59:15;;;;;;;21.90;11.88;;;;;;;-4.61;72.74;96532.41;5049326;28;20289;-77
2023/02/10 05:01:42;;;;;;;27.55;10.85;;;;;;;-4.67;72.55;96532.38;5049871;28;20207;-78
2023/02/10 05:04:10;;;;;;;13.30;9.73;;;;;;;-4.68;72.02;96541.78;5048486;28;20647;-77
2023/02/10 05:06:37;;;;;;;14.40;9.35;;;;;;;-4.84;72.43;96540.06;5032018;28;20249;-77
2023/02/10 05:09:04;;;;;;;14.85;9.65;;;;;;;-4.81;72.83;96549.44;5036225;28;20215;-77
2023/02/10 05:11:31;;;;;;;13.35;8.52;;;;;;;-4.85;73.37;96540.91;5052021;28;20256;-78
2023/02/10 05:13:58;;;;;;;15.50;10.48;;;;;;;-4.85;73.26;96545.19;5051789;28;20203;-78
2023/02/10 05:16:25;;;;;;;16.05;10.48;;;;;;;-4.87;73.60;96546.91;5052243;28;20198;-78
2023/02/10 05:18:52;;;;;;;14.23;9.40;;;;;;;-4.90;73.14;96549.44;5052033;28;20257;-78
2023/02/10 05:21:20;;;;;;;16.52;9.52;;;;;;;-4.97;73.10;96548.56;5052041;28;20269;-78
2023/02/10 05:23:47;;;;;;;15.30;9.30;;;;;;;-4.97;73.79;96563.91;5001084;28;20272;-78
2023/02/10 05:26:14;;;;;;;19.73;10.88;;;;;;;-4.95;74.05;96569.88;5003748;28;20222;-78
2023/02/10 05:28:40;;;;;;;18.35;9.68;;;;;;;-4.91;73.89;96569.06;5055452;28;20223;-78
2023/02/10 05:31:08;;;;;;;18.30;10.05;;;;;;;-4.91;73.94;96578.47;5020289;28;20240;-79
2023/02/10 05:33:35;;;;;;;11.02;9.38;;;;;;;-4.83;73.22;96577.63;5004506;28;20252;-79
2023/02/10 05:36:02;;;;;;;20.02;11.05;;;;;;;-4.73;73.01;96588.72;5055404;28;20290;-79
2023/02/10 05:38:30;;;;;;;23.40;9.77;;;;;;;-4.71;72.08;96582.75;5055360;28;20680;-79
2023/02/10 05:40:57;;;;;;;25.52;11.55;;;;;;;-4.74;72.05;96590.44;5054090;28;20195;-78
2023/02/10 05:43:23;;;;;;;23.98;10.13;;;;;;;-4.74;71.79;96592.13;5054692;28;20733;-79
2023/02/10 05:45:50;;;;;;;14.02;9.60;;;;;;;-4.84;71.67;96595.53;5054698;28;20207;-78
2023/02/10 05:48:17;;;;;;;16.55;10.60;;;;;;;-4.79;72.01;96604.06;5055020;28;20227;-78
2023/02/10 05:50:43;;;;;;;20.67;11.60;;;;;;;-4.42;72.63;96604.97;5054675;28;20260;-80
2023/02/10 05:53:10;;;;;;;19.83;12.48;;;;;;;-3.70;70.25;96604.94;5054779;28;20206;-80
2023/02/10 05:55:38;;;;;;;20.63;12.02;;;;;;;-2.91;66.85;96605.50;5054692;28;20264;-78
2023/02/10 05:58:05;;;;;;;25.90;13.77;;;;;;;-2.13;64.80;96609.31;5054853;28;20589;-77
2023/02/10 06:00:32;;;;;;;21.98;13.35;;;;;;;-1.67;62.33;96602.06;5056655;28;20650;-78
2023/02/10 06:02:59;;;;;;;31.02;15.63;;;;;;;-1.21;61.18;96593.81;5057116;28;20203;-77
2023/02/10 06:05:25;;;;;;;30.83;15.43;;;;;;;-0.48;59.95;96598.03;5054239;28;20692;-77
2023/02/10 06:07:54;;;;;;;31.02;17.90;;;;;;;-0.12;57.58;96602.63;5054537;28;20292;-77
2023/02/10 06:10:21;;;;;;;48.78;27.80;;;;;;;0.27;55.73;96608.00;5054432;28;20665;-77
2023/02/10 06:12:49;;;;;;;64.60;33.75;;;;;;;0.65;54.79;96615.09;5054741;28;21234;-78
2023/02/10 06:15:16;;;;;;;48.60;26.53;;;;;;;0.98;52.24;96610.19;5054669;28;20259;-77
2023/02/10 06:17:43;;;;;;;49.30;25.67;;;;;;;1.14;52.35;96612.41;5054298;28;20511;-77
2023/02/10 06:20:10;;;;;;;34.20;19.10;;;;;;;1.52;50.92;96610.78;5054788;28;20445;-77
2023/02/10 06:22:37;;;;;;;34.30;19.37;;;;;;;1.78;49.35;96613.63;5003143;28;20445;-78
2023/02/10 06:25:04;;;;;;;29.53;15.67;;;;;;;1.79;49.41;96623.09;5054764;28;20518;-77
2023/02/10 06:27:31;;;;;;;29.03;19.07;;;;;;;2.01;48.75;96619.97;5035789;28;20587;-78
2023/02/10 06:29:59;;;;;;;23.27;17.53;;;;;;;2.30;47.76;96620.13;5055027;28;20760;-77
2023/02/10 06:32:26;;;;;;;22.23;14.90;;;;;;;2.32;47.70;96620.97;5054446;28;20449;-78
2023/02/10 06:34:52;;;;;;;23.23;15.53;;;;;;;2.20;47.54;96620.41;5054281;28;20445;-77
2023/02/10 06:37:19;;;;;;;22.17;13.90;;;;;;;2.19;47.67;96629.91;5019276;28;20449;-78
2023/02/10 06:39:46;;;;;;;20.87;15.07;;;;;;;2.12;47.06;96625.78;5002992;28;21054;-76
2023/02/10 06:42:13;;;;;;;22.23;12.73;;;;;;;2.01;47.95;96633.78;5052049;28;20457;-78
2023/02/10 06:44:40;;;;;;;29.57;13.00;;;;;;;1.93;48.05;96625.34;5040249;28;20555;-77
2023/02/10 06:47:08;;;;;;;22.43;12.30;;;;;;;1.79;48.36;96628.28;5053538;28;20510;-78
2023/02/10 06:49:34;;;;;;;26.10;15.77;;;;;;;1.70;48.77;96635.38;5045135;28;20493;-78
2023/02/10 06:52:01;;;;;;;32.03;14.83;;;;;;;1.69;49.95;96634.50;5005900;28;20457;-78
2023/02/10 06:54:28;;;;;;;22.02;14.23;;;;;;;1.45;49.53;96633.34;5005233;28;20568;-82
2023/02/10 06:56:55;;;;;;;22.55;12.77;;;;;;;1.34;50.08;96634.41;5054318;28;20198;-78
2023/02/10 06:59:22;;;;;;;24.92;12.70;;;;;;;1.16;51.29;96635.66;5053891;28;20254;-77
2023/02/10 07:01:49;;;;;;;23.25;13.60;;;;;;;1.09;51.82;96641.81;5053019;28;20261;-77
2023/02/10 07:04:17;;;;;;;24.98;14.85;;;;;;;1.03;51.75;96645.38;5053629;28;20261;-78
2023/02/10 07:06:44;;;;;;;31.70;15.00;;;;;;;1.02;51.83;96643.69;5053487;28;20680;-78
2023/02/10 07:09:10;;;;;;;23.75;13.95;;;;;;;1.02;51.43;96635.94;5053390;28;20236;-78
2023/02/10 07:11:37;;;;;;;20.95;11.90;;;;;;;0.99;51.09;96638.56;5051547;28;20218;-78
2023/02/10 07:14:04;;;;;;;21.95;11.15;;;;;;;1.00;51.06;96640.28;5050004;28;20207;-78
2023/02/10 07:16:31;;;;;;;15.60;10.70;;;;;;;1.05;50.99;96641.03;5040836;28;20268;-78
2023/02/10 07:18:58;;;;;;;22.10;10.93;;;;;;;1.15;50.92;96629.63;5045532;28;20269;-78
2023/02/10 07:21:26;;;;;;;38.80;16.17;;;;;;;1.20;50.87;96627.81;5033039;28;20286;-78
2023/02/10 07:23:53;;;;;;;29.50;16.50;;;;;;;1.08;51.27;96629.78;5032508;28;20742;-78
2023/02/10 07:26:19;;;;;;;63.95;31.35;;;;;;;0.93;51.07;96624.03;5032442;28;20640;-78
2023/02/10 07:28:46;;;;;;;36.75;16.63;;;;;;;0.87;51.58;96621.59;5032151;28;20745;-77
2023/02/10 07:31:13;;;;;;;26.65;13.63;;;;;;;0.76;52.31;96620.06;5032478;28;20207;-77
2023/02/10 07:33:40;;;;;;;24.67;14.07;;;;;;;0.66;52.59;96629.72;5032306;28;20207;-78
2023/02/10 07:36:08;;;;;;;26.98;13.82;;;;;;;0.64;52.54;96630.63;5032310;28;20199;-78
2023/02/10 07:38:37;;;;;;;22.00;11.13;;;;;;;0.59;52.70;96621.25;4997751;28;20744;-78
2023/02/10 07:41:05;;;;;;;24.10;12.75;;;;;;;0.41;53.28;96618.13;5032264;28;20200;-77
2023/02/10 07:43:34;;;;;;;28.88;11.45;;;;;;;0.44;53.41;96618.06;5032434;28;20207;-77
2023/02/10 07:46:01;;;;;;;23.25;13.77;;;;;;;0.26;53.26;96626.97;5031782;28;20305;-78
2023/02/10 07:48:28;;;;;;;30.13;12.30;;;;;;;0.19;53.91;96621.06;5032032;28;20296;-78
2023/02/10 07:50:54;;;;;;;18.50;11.85;;;;;;;0.12;54.71;96624.63;5031932;28;20200;-78
2023/02/10 07:53:22;;;;;;;24.77;13.32;;;;;;;0.04;54.84;96620.47;5032064;28;20666;-77
2023/02/10 07:55:51;;;;;;;25.52;14.10;;;;;;;-0.15;55.53;96618.16;5032075;28;20212;-77
2023/02/10 07:58:18;;;;;;;23.25;13.02;;;;;;;-0.25;56.27;96624.34;5031989;28;20240;-77
2023/02/10 08:00:44;;;;;;;26.25;14.70;;;;;;;-0.52;57.27;96628.16;5032179;28;20246;-77
2023/02/10 08:03:13;;;;;;;33.53;15.30;;;;;;;-0.79;58.36;96624.22;5032078;28;20207;-77
2023/02/10 08:05:41;;;;;;;36.47;18.52;;;;;;;-1.22;59.40;96623.88;5031907;28;20744;-78
2023/02/10 08:08:08;;;;;;;25.95;15.02;;;;;;;-1.19;60.04;96630.72;5032124;28;20203;-77
2023/02/10 08:10:35;;;;;;;30.80;16.40;;;;;;;-1.04;60.14;96630.56;5032024;28;20264;-77
2023/02/10 08:13:03;;;;;;;30.23;16.50;;;;;;;-0.98;60.43;96622.75;5031907;28;20202;-77
2023/02/10 08:15:30;;;;;;;30.08;14.93;;;;;;;-1.27;60.73;96628.22;5031926;28;20196;-77
2023/02/10 08:17:59;;;;;;;24.20;12.20;;;;;;;-1.51;62.95;96625.91;5031748;28;20671;-78
2023/02/10 08:20:26;;;;;;;21.30;12.60;;;;;;;-1.57;62.50;96630.25;4996828;28;20666;-77
2023/02/10 08:22:55;;;;;;;30.27;15.70;;;;;;;-1.65;62.92;96621.75;5031738;28;20204;-77
2023/02/10 08:25:21;;;;;;;32.78;15.88;;;;;;;-1.40;62.94;96617.22;5031133;28;20243;-77
2023/02/10 08:27:49;;;;;;;39.90;18.45;;;;;;;-1.16;62.21;96622.94;5031701;28;20213;-77
2023/02/10 08:30:18;;;;;;;36.85;17.60;;;;;;;-1.31;62.74;96619.69;5032368;28;20231;-79
2023/02/10 08:32:45;;;;;;;32.63;17.95;;;;;;;-1.23;64.06;96629.03;5032130;28;20441;-81
2023/02/10 08:35:12;;;;;;;26.95;15.23;;;;;;;-1.09;62.93;96617.72;5032120;28;20215;-77
2023/02/10 08:37:39;;;;;;;29.02;15.98;;;;;;;-1.04;63.71;96622.81;5032637;28;20219;-78
2023/02/10 08:40:06;;;;;;;25.50;16.15;;;;;;;-0.91;63.29;96619.22;4997493;28;20203;-78
2023/02/10 08:42:34;;;;;;;24.95;15.15;;;;;;;-0.72;63.10;96623.28;5032375;28;20203;-78
2023/02/10 08:45:01;;;;;;;32.97;17.02;;;;;;;-0.56;62.71;96617.94;5032676;28;20200;-78
2023/02/10 08:47:29;;;;;;;36.72;16.55;;;;;;;-0.41;62.00;96620.28;4997493;28;20250;-79
2023/02/10 08:49:56;;;;;;;29.35;15.80;;;;;;;-0.38;60.52;96620.22;5032147;28;20234;-78
2023/02/10 08:52:24;;;;;;;28.85;16.00;;;;;;;-0.31;61.52;96622.69;5032594;28;20273;-77
2023/02/10 08:54:50;;;;;;;32.33;16.85;;;;;;;-0.14;60.68;96627.63;5032387;28;20558;-78
2023/02/10 08:57:17;;;;;;;46.45;15.95;;;;;;;0.02;59.33;96623.09;5032512;28;20280;-77
2023/02/10 08:59:44;;;;;;;26.65;15.48;;;;;;;0.15;58.86;96613.41;5036514;28;20682;-78
2023/02/10 09:02:11;;;;;;;28.30;16.77;;;;;;;0.22;56.67;96607.25;5035834;28;20207;-79
2023/02/10 09:04:40;;;;;;;26.38;15.20;;;;;;;0.36;56.79;96605.28;5035723;28;20294;-79
2023/02/10 09:07:08;;;;;;;30.80;14.15;;;;;;;0.60;57.40;96601.44;5053852;28;20646;-79
2023/02/10 09:09:38;;;;;;;24.80;12.63;;;;;;;0.80;56.70;96599.31;5054062;28;20235;-78
2023/02/10 09:12:05;;;;;;;26.77;16.25;;;;;;;1.12;57.13;96602.97;5012410;28;20215;-79
2023/02/10 09:14:32;;;;;;;19.98;13.57;;;;;;;1.33;54.23;96596.53;5056142;28;20245;-78
2023/02/10 09:16:59;;;;;;;25.10;15.23;;;;;;;1.55;53.75;96593.44;5035564;28;20257;-81
2023/02/10 09:19:26;;;;;;;34.35;14.55;;;;;;;1.75;52.65;96590.41;5036314;28;20207;-78
2023/02/10 09:21:55;;;;;;;29.20;14.73;;;;;;;1.81;52.09;96592.84;5051058;28;20202;-83
2023/02/10 09:24:23;;;;;;;24.52;11.95;;;;;;;1.72;51.37;96589.59;5055869;28;20209;-78
2023/02/10 09:26:49;;;;;;;19.58;12.20;;;;;;;1.54;52.19;96590.88;5055426;28;20237;-79
2023/02/10 09:29:16;;;;;;;19.13;12.73;;;;;;;1.70;52.22;96592.22;5055856;28;20755;-78
2023/02/10 09:31:43;;;;;;;22.90;14.10;;;;;;;1.80;52.55;96583.38;5055616;28;20225;-78
2023/02/10 09:34:10;;;;;;;30.55;16.05;;;;;;;1.98;52.44;96582.06;5055610;28;20441;-78
2023/02/10 09:36:37;;;;;;;29.77;15.63;;;;;;;1.91;52.32;96580.53;5055331;28;20199;-78
2023/02/10 09:39:05;;;;;;;30.50;17.20;;;;;;;1.77;52.04;96577.44;5055787;28;20264;-79
2023/02/10 09:41:43;;;;;;;32.38;16.25;;;;;;;1.80;51.59;96583.38;5055046;28;20712;-78
2023/02/10 09:44:16;;;;;;;22.52;14.60;;;;;;;1.79;50.64;96576.50;5055637;28;20514;-77
2023/02/10 09:46:55;;;;;;;29.10;16.47;;;;;;;1.87;51.82;96573.72;5055557;28;20207;-78
2023/02/10 09:49:44;;;;;;;27.33;14.68;;;;;;;1.91;51.76;96561.56;5054953;28;20571;-79
2023/02/10 09:52:18;;;;;;;28.63;14.95;;;;;;;2.09;50.84;96561.13;5055129;28;20207;-78
2023/02/10 09:54:47;;;;;;;29.83;14.35;;;;;;;2.16;50.44;96553.16;5055262;28;20198;-79
2023/02/10 09:57:17;;;;;;;23.97;14.53;;;;;;;2.08;49.84;96552.50;5019976;28;20237;-77
2023/02/10 09:59:46;;;;;;;20.95;15.05;;;;;;;2.15;49.89;96553.19;5055107;28;20455;-78
2023/02/10 10:02:20;;;;;;;21.45;15.50;;;;;;;2.05;50.50;96554.31;5054825;28;20202;-83
2023/02/10 10:04:47;;;;;;;25.83;15.43;;;;;;;2.11;50.43;96555.03;5055400;28;20201;-79
2023/02/10 10:07:24;;;;;;;26.70;15.95;;;;;;;2.14;50.49;96551.50;5055184;28;20207;-78
2023/02/10 10:10:02;;;;;;;26.48;15.23;;;;;;;2.23;50.70;96550.41;5052980;28;20681;-79
2023/02/10 10:12:29;;;;;;;25.33;14.73;;;;;;;2.24;50.52;96545.19;5054569;28;20213;-78
2023/02/10 10:14:56;;;;;;;23.25;13.80;;;;;;;2.24;51.00;96529.66;5054065;28;20252;-77
2023/02/10 10:17:45;;;;;;;22.63;15.07;;;;;;;2.20;50.04;96530.63;5037920;28;20195;-78
2023/02/10 10:20:31;;;;;;;25.57;15.30;;;;;;;2.23;51.00;96527.09;5034108;28;20909;-78
2023/02/10 10:23:12;;;;;;;24.67;14.40;;;;;;;2.34;51.02;96522.50;5036025;28;20434;-77
2023/02/10 10:25:58;;;;;;;25.90;13.73;;;;;;;2.39;50.46;96526.66;5034429;28;20249;-77
2023/02/10 10:28:41;;;;;;;29.20;15.60;;;;;;;2.33;50.62;96519.06;5046008;28;20209;-78
2023/02/10 10:31:13;;;;;;;22.43;14.00;;;;;;;2.44;50.85;96513.59;5033448;28;20489;-78
2023/02/10 10:33:48;;;;;;;29.15;15.80;;;;;;;2.51;51.39;96506.50;5032965;28;20442;-77
2023/02/10 10:36:17;;;;;;;26.47;13.73;;;;;;;2.61;51.14;96510.56;5038463;28;20203;-77
2023/02/10 10:38:48;;;;;;;32.50;16.57;;;;;;;2.63;51.67;96506.19;5035061;28;20472;-77
2023/02/10 10:41:17;;;;;;;33.73;15.93;;;;;;;2.70;51.32;96505.97;5032466;28;20500;-77
2023/02/10 10:43:47;;;;;;;24.03;15.60;;;;;;;2.68;51.38;96502.56;5034948;28;20454;-77
2023/02/10 10:46:20;;;;;;;24.80;16.10;;;;;;;2.63;52.47;96498.41;5034078;28;20500;-76
2023/02/10 10:48:47;;;;;;;27.40;15.37;;;;;;;2.55;52.15;96500.34;5033618;28;20525;-77
2023/02/10 10:51:14;;;;;;;24.30;15.37;;;;;;;2.34;51.99;96496.59;5043594;28;20490;-80
2023/02/10 10:53:44;;;;;;;27.57;14.77;;;;;;;2.32;51.08;96494.06;5032431;28;20921;-77
2023/02/10 10:56:21;;;;;;;28.40;16.80;;;;;;;2.40;52.04;96491.25;5032097;28;20450;-77
2023/02/10 10:58:50;;;;;;;26.40;13.77;;;;;;;2.45;51.29;96486.78;5033146;28;20442;-77
2023/02/10 11:01:18;;;;;;;41.95;18.42;;;;;;;2.56;51.34;96476.13;5033409;28;20462;-78
2023/02/10 11:03:45;;;;;;;31.93;15.37;;;;;;;2.55;51.04;96474.44;5030067;28;20257;-82
2023/02/10 11:06:14;;;;;;;23.27;13.67;;;;;;;2.60;49.80;96473.44;5035737;28;20454;-77
2023/02/10 11:08:44;;;;;;;20.93;13.63;;;;;;;2.64;49.46;96469.00;5041311;28;20454;-78
2023/02/10 11:11:14;;;;;;;26.20;14.03;;;;;;;2.69;50.33;96467.13;5033882;28;20540;-81
2023/02/10 11:13:51;;;;;;;29.92;16.63;;;;;;;2.76;49.96;96466.03;5033768;28;20446;-77
2023/02/10 11:16:19;;;;;;;30.60;15.73;;;;;;;2.85;51.85;96468.38;5042676;28;20591;-77
2023/02/10 11:18:53;;;;;;;23.50;14.52;;;;;;;2.82;50.25;96462.41;5041826;28;20445;-77
2023/02/10 11:21:20;;;;;;;28.10;15.87;;;;;;;2.86;49.82;96464.88;5043829;28;20715;-77
2023/02/10 11:23:49;;;;;;;27.60;15.47;;;;;;;2.95;51.11;96459.44;5032237;28;20951;-78
2023/02/10 11:26:20;;;;;;;25.20;15.60;;;;;;;3.06;50.88;96459.97;5031615;28;20483;-77
2023/02/10 11:28:49;;;;;;;21.00;13.90;;;;;;;3.16;48.93;96454.47;5032130;28;20918;-77